Terminal Aerodrome Forecast
Issued by NWS Tampa Bay Area, FL

Home | Current Version | Previous Version | Text Only | Print | Product List | Glossary On
Versions: 1 2 3 4 5 6 7 8 9 10 11 12 13 14 15
000
FTUS42 KTBW 222343
TAFSRQ
TAF
KSRQ 222343Z 2300/2324 09005KT P6SM FEW050
     FM231400 11008KT P6SM FEW030
     FM231900 24008KT P6SM SCT045=

USA.gov is the U.S. government's official web portal to all federal, state and local government web resources and services.